Time;durP1;ratioP1;P1;durP2;ratioP2;P2;SDS_P1;SDS_P2;PMS_P1;PMS_P2;Temp;Humidity;BMP_temperature;BMP_pressure;BME280_temperature;BME280_humidity;BME280_pressure;Samples;Min_cycle;Max_cycle;Signal;HPM_P1;HPM_P2
2023/02/17 00:00:35;;;;;;;135.45;52.15;;;;;;;1.23;100.00;98343.19;5057191;28;20024;-76
2023/02/17 00:03:01;;;;;;;144.40;56.28;;;;;;;1.15;100.00;98324.84;5090459;28;20056;-76
2023/02/17 00:05:27;;;;;;;146.68;56.70;;;;;;;1.20;100.00;98333.53;5073695;28;20059;-75
2023/02/17 00:07:53;;;;;;;155.10;58.40;;;;;;;1.16;100.00;98333.63;5079953;28;20028;-77
2023/02/17 00:10:45;;;;;;;150.07;58.85;;;;;;;0.95;100.00;98298.72;5070109;28;20036;-77
2023/02/17 00:13:46;;;;;;;142.18;52.38;;;;;;;0.63;100.00;98249.97;5068625;28;20032;-76
2023/02/17 00:16:33;;;;;;;138.23;51.15;;;;;;;0.71;100.00;98279.72;5039181;28;20043;-75
2023/02/17 00:19:27;;;;;;;131.13;52.42;;;;;;;0.59;100.00;98256.16;5073220;28;20035;-76
2023/02/17 00:21:57;;;;;;;135.65;53.47;;;;;;;0.71;100.00;98287.63;5081629;28;20426;-76
2023/02/17 00:24:56;;;;;;;126.18;51.05;;;;;;;0.88;100.00;98317.25;5093392;28;20027;-76
2023/02/17 00:28:00;;;;;;;138.27;51.20;;;;;;;0.44;100.00;98257.19;5025622;28;20044;-76
2023/02/17 00:30:32;;;;;;;130.38;52.88;;;;;;;0.34;100.00;98243.28;5004939;28;20045;-76
2023/02/17 00:32:58;;;;;;;132.57;51.58;;;;;;;0.77;100.00;98311.25;4993288;28;20034;-76
2023/02/17 00:35:23;;;;;;;143.35;56.63;;;;;;;0.73;100.00;98301.63;5009251;28;20141;-76
2023/02/17 00:37:49;;;;;;;140.38;55.90;;;;;;;0.72;100.00;98307.78;4992946;28;20042;-76
2023/02/17 00:40:15;;;;;;;136.55;53.55;;;;;;;0.68;100.00;98299.03;4976543;28;20077;-76
2023/02/17 00:42:40;;;;;;;148.85;56.03;;;;;;;0.78;100.00;98307.72;4992903;28;20036;-76
2023/02/17 00:45:07;;;;;;;136.48;54.75;;;;;;;0.72;100.00;98305.16;5008237;28;20037;-76
2023/02/17 00:47:32;;;;;;;139.25;51.95;;;;;;;0.73;100.00;98301.63;4976434;28;20037;-76
2023/02/17 00:49:58;;;;;;;148.38;55.53;;;;;;;0.71;100.00;98304.28;5009182;28;20038;-76
2023/02/17 00:52:23;;;;;;;153.55;57.42;;;;;;;0.69;100.00;98285.00;4992626;28;20042;-76
2023/02/17 00:54:49;;;;;;;175.48;61.97;;;;;;;0.72;100.00;98284.09;4976468;28;20033;-76
2023/02/17 00:57:14;;;;;;;179.13;62.20;;;;;;;0.83;100.00;98282.22;4976346;28;20117;-76
2023/02/17 00:59:40;;;;;;;148.77;56.22;;;;;;;0.83;100.00;98282.22;4992826;28;20034;-76
2023/02/17 01:02:05;;;;;;;181.45;61.80;;;;;;;0.78;100.00;98286.66;5006111;28;20037;-76
2023/02/17 01:04:31;;;;;;;209.13;67.63;;;;;;;0.83;100.00;98280.44;5046920;28;20033;-76
2023/02/17 01:06:56;;;;;;;226.90;74.65;;;;;;;0.73;100.00;98264.78;5017796;28;20021;-76
2023/02/17 01:09:22;;;;;;;179.15;62.33;;;;;;;0.73;100.00;98265.66;5012085;28;20041;-76
2023/02/17 01:11:48;;;;;;;182.60;59.15;;;;;;;0.75;100.00;98270.88;5039029;28;20032;-76
2023/02/17 01:14:14;;;;;;;159.73;55.92;;;;;;;0.77;100.00;98255.97;5055965;28;20391;-76
2023/02/17 01:16:44;;;;;;;158.02;52.70;;;;;;;0.84;100.00;98265.50;5072818;28;20024;-75
2023/02/17 01:19:12;;;;;;;146.57;51.30;;;;;;;0.91;100.00;98259.28;5055816;28;20032;-76
2023/02/17 01:21:38;;;;;;;167.68;55.67;;;;;;;0.86;100.00;98258.50;5092703;28;20106;-76
2023/02/17 01:24:05;;;;;;;161.18;54.47;;;;;;;0.82;100.00;98249.75;5061207;28;20070;-77
2023/02/17 01:26:32;;;;;;;210.15;61.35;;;;;;;0.94;100.00;98254.00;5055963;28;20093;-77
2023/02/17 01:28:58;;;;;;;124.30;44.95;;;;;;;0.76;100.00;98243.69;5072781;28;20028;-77
2023/02/17 01:31:25;;;;;;;119.43;44.03;;;;;;;0.86;100.00;98255.84;5090685;28;20537;-77
2023/02/17 01:33:52;;;;;;;117.05;43.40;;;;;;;0.80;100.00;98253.31;5076514;28;20026;-77
2023/02/17 01:36:18;;;;;;;120.75;44.53;;;;;;;0.83;100.00;98240.94;5092840;28;20030;-76
2023/02/17 01:38:45;;;;;;;125.85;46.65;;;;;;;0.82;100.00;98252.38;5075982;28;20379;-75
2023/02/17 01:41:12;;;;;;;134.45;49.47;;;;;;;0.82;100.00;98241.84;5093136;28;20031;-75
2023/02/17 01:43:39;;;;;;;125.45;42.80;;;;;;;0.86;100.00;98256.69;5075716;28;20016;-76
2023/02/17 01:46:06;;;;;;;112.57;42.13;;;;;;;0.92;100.00;98267.16;5092686;28;20027;-76
2023/02/17 01:48:42;;;;;;;122.80;42.78;;;;;;;1.00;100.00;98253.91;5082523;28;20063;-77
2023/02/17 01:51:19;;;;;;;103.25;39.45;;;;;;;1.06;100.00;98245.94;5081150;28;20028;-77
2023/02/17 01:53:49;;;;;;;98.10;38.05;;;;;;;1.05;100.00;98238.91;5072103;28;20040;-77
2023/02/17 01:56:16;;;;;;;102.25;37.65;;;;;;;1.03;100.00;98238.06;5074815;28;20027;-77
2023/02/17 01:58:45;;;;;;;109.78;40.13;;;;;;;1.09;100.00;98228.31;5075754;28;20066;-75
2023/02/17 02:01:11;;;;;;;91.35;35.35;;;;;;;1.02;100.00;98216.13;5059341;28;20075;-76
2023/02/17 02:03:38;;;;;;;93.57;36.83;;;;;;;1.05;100.00;98220.47;5069315;28;20115;-76
2023/02/17 02:06:08;;;;;;;80.10;32.75;;;;;;;1.13;100.00;98231.78;5079613;28;20032;-76
2023/02/17 02:08:44;;;;;;;67.25;25.38;;;;;;;1.18;100.00;98214.16;5078074;28;20027;-77
2023/02/17 02:11:09;;;;;;;84.32;30.45;;;;;;;1.18;100.00;98200.09;5076001;28;20024;-77
2023/02/17 02:13:35;;;;;;;69.82;26.92;;;;;;;1.19;100.00;98208.00;5059085;28;20097;-76
2023/02/17 02:16:11;;;;;;;54.88;21.17;;;;;;;1.35;100.00;98206.88;5075838;28;20023;-77
2023/02/17 02:18:46;;;;;;;60.85;22.40;;;;;;;1.41;100.00;98211.19;5093374;28;20024;-77
2023/02/17 02:21:15;;;;;;;51.70;20.58;;;;;;;1.48;100.00;98211.06;5075486;28;20059;-76
2023/02/17 02:23:50;;;;;;;44.25;18.63;;;;;;;1.62;100.00;98202.94;5093296;28;20492;-77
2023/02/17 02:26:31;;;;;;;49.33;20.13;;;;;;;1.60;100.00;98200.31;5075721;28;20508;-77
2023/02/17 02:29:25;;;;;;;44.45;15.68;;;;;;;1.64;100.00;98207.28;5058850;28;20023;-76
2023/02/17 02:32:18;;;;;;;43.05;15.52;;;;;;;1.57;100.00;98189.81;5113204;28;20082;-77
2023/02/17 02:34:54;;;;;;;22.83;10.75;;;;;;;1.66;100.00;98177.41;5103403;28;20090;-77
2023/02/17 02:37:25;;;;;;;31.60;13.50;;;;;;;1.75;100.00;98182.53;5075738;28;20024;-77
2023/02/17 02:39:52;;;;;;;32.08;13.10;;;;;;;1.75;100.00;98182.53;5094710;28;20100;-75
2023/02/17 02:42:22;;;;;;;33.20;14.15;;;;;;;1.82;100.00;98197.31;5078602;28;20036;-76
2023/02/17 02:44:48;;;;;;;32.17;10.90;;;;;;;1.70;100.00;98185.22;5083412;28;20041;-76
2023/02/17 02:47:38;;;;;;;19.73;8.77;;;;;;;1.93;100.00;98179.56;5075497;28;20028;-76
2023/02/17 02:50:04;;;;;;;29.02;11.88;;;;;;;1.98;100.00;98185.59;5075600;28;20138;-76
2023/02/17 02:52:35;;;;;;;27.10;12.40;;;;;;;2.06;100.00;98186.38;5075190;28;20543;-76
2023/02/17 02:55:07;;;;;;;30.13;11.93;;;;;;;2.18;100.00;98184.34;5096954;28;20084;-77
2023/02/17 02:57:59;;;;;;;26.38;11.45;;;;;;;2.42;100.00;98167.19;5078587;28;20784;-77
2023/02/17 03:00:52;;;;;;;;;;;;;;;2.56;100.00;98165.13;5106725;28;20413;-77
2023/02/17 03:03:39;;;;;;;38.53;15.07;;;;;;;2.64;100.00;98172.91;5085986;28;19982;-76
2023/02/17 03:06:16;;;;;;;35.22;13.93;;;;;;;2.93;100.00;98159.06;5079000;28;20514;-76
2023/02/17 03:08:51;;;;;;;55.53;18.98;;;;;;;3.14;100.00;98159.44;5077207;28;20019;-75
2023/02/17 03:11:31;;;;;;;46.30;17.58;;;;;;;3.28;100.00;98161.78;5113104;28;20075;-78
2023/02/17 03:14:11;;;;;;;39.83;12.32;;;;;;;3.59;100.00;98157.50;5096001;28;20547;-75
2023/02/17 03:16:38;;;;;;;49.85;17.75;;;;;;;3.82;100.00;98139.28;5078041;28;20046;-77
2023/02/17 03:19:04;;;;;;;52.13;17.98;;;;;;;4.10;100.00;98143.84;5077602;28;20032;-76
2023/02/17 03:21:35;;;;;;;109.63;31.02;;;;;;;4.31;100.00;98133.53;5094947;28;20024;-76
2023/02/17 03:24:00;;;;;;;102.65;28.02;;;;;;;4.51;99.63;98125.03;5077627;28;20038;-76
2023/02/17 03:26:26;;;;;;;96.63;29.23;;;;;;;4.63;98.92;98127.34;5077788;28;20027;-76
2023/02/17 03:28:51;;;;;;;253.57;71.20;;;;;;;4.56;98.20;98101.91;5076149;28;20053;-75
2023/02/17 03:31:17;;;;;;;132.38;40.95;;;;;;;4.67;98.12;98115.75;5074446;28;20051;-76
2023/02/17 03:34:01;;;;;;;53.03;19.83;;;;;;;4.89;95.41;98111.50;5074255;28;20034;-79
2023/02/17 03:36:28;;;;;;;47.17;14.48;;;;;;;5.11;92.29;98105.53;5084800;28;20479;-77
2023/02/17 03:38:54;;;;;;;36.13;12.30;;;;;;;5.76;86.83;98091.00;5094693;28;20114;-75
2023/02/17 03:41:20;;;;;;;39.28;14.93;;;;;;;6.18;81.57;98079.84;5077551;28;20120;-75
2023/02/17 03:43:45;;;;;;;28.42;11.43;;;;;;;6.38;79.12;98079.97;5094553;28;20031;-77
2023/02/17 03:46:14;;;;;;;19.55;6.65;;;;;;;6.89;74.01;98071.84;5094547;28;20523;-76
2023/02/17 03:48:40;;;;;;;20.13;6.68;;;;;;;7.54;68.54;98063.84;5093779;28;20055;-75
2023/02/17 03:51:17;;;;;;;14.40;6.50;;;;;;;7.83;65.31;98049.31;5112112;28;20059;-75
2023/02/17 03:53:43;;;;;;;13.45;6.25;;;;;;;7.95;63.52;98049.66;5077344;28;20031;-76
2023/02/17 03:56:09;;;;;;;14.15;6.10;;;;;;;8.12;62.37;98039.09;5094197;28;20034;-75
2023/02/17 03:58:35;;;;;;;15.63;7.30;;;;;;;8.25;61.14;98027.91;5087579;28;20034;-77
2023/02/17 04:01:01;;;;;;;16.13;6.82;;;;;;;8.32;60.60;98027.59;5093513;28;20122;-75
2023/02/17 04:03:26;;;;;;;17.90;7.22;;;;;;;8.29;60.38;98025.06;5071844;28;20411;-75
2023/02/17 04:05:53;;;;;;;13.93;7.25;;;;;;;8.41;59.52;98029.84;5073470;28;20034;-77
2023/02/17 04:08:19;;;;;;;15.32;6.50;;;;;;;8.43;59.16;98019.13;5073957;28;20028;-76
2023/02/17 04:10:45;;;;;;;15.38;6.78;;;;;;;8.47;58.38;98007.38;5057044;28;20032;-76
2023/02/17 04:13:10;;;;;;;14.95;7.13;;;;;;;8.46;58.41;98003.00;5073524;28;20488;-76
2023/02/17 04:15:36;;;;;;;15.85;7.72;;;;;;;8.49;58.21;98013.50;5056991;28;20127;-76
2023/02/17 04:18:01;;;;;;;45.95;14.15;;;;;;;8.43;58.93;98016.47;5073356;28;20103;-76
2023/02/17 04:20:27;;;;;;;39.45;12.40;;;;;;;8.14;61.12;98020.41;5086524;28;20586;-76
2023/02/17 04:22:52;;;;;;;28.95;10.68;;;;;;;7.90;61.76;98021.50;5093924;28;20051;-76
2023/02/17 04:25:18;;;;;;;26.23;9.88;;;;;;;7.59;64.39;98035.25;5093668;28;20020;-75
2023/02/17 04:27:43;;;;;;;29.30;10.90;;;;;;;7.36;65.84;98036.19;5094311;28;20059;-75
2023/02/17 04:30:09;;;;;;;30.55;10.93;;;;;;;7.11;67.84;98039.94;5066177;28;20031;-76
2023/02/17 04:32:35;;;;;;;25.98;10.77;;;;;;;6.86;71.23;98037.41;5073421;28;20136;-76
2023/02/17 04:35:00;;;;;;;30.40;10.00;;;;;;;6.69;72.17;98053.13;5072976;28;20066;-76
2023/02/17 04:37:26;;;;;;;28.45;11.75;;;;;;;6.46;73.17;98052.19;5073272;28;20027;-76
2023/02/17 04:39:51;;;;;;;40.47;15.60;;;;;;;6.39;74.75;98060.47;5064155;28;20032;-77
2023/02/17 04:42:17;;;;;;;32.45;13.43;;;;;;;6.23;76.82;98072.56;5093364;28;20513;-77
2023/02/17 04:44:42;;;;;;;36.42;14.25;;;;;;;6.10;77.57;98077.44;5076885;28;20075;-76
2023/02/17 04:47:08;;;;;;;34.40;16.33;;;;;;;5.87;81.55;98083.59;5075371;28;20107;-77
2023/02/17 04:49:33;;;;;;;31.10;14.27;;;;;;;5.64;82.36;98085.25;5076153;28;20024;-77
2023/02/17 04:51:59;;;;;;;33.60;14.95;;;;;;;5.50;83.71;98092.81;5087685;28;20098;-77
2023/02/17 04:54:24;;;;;;;46.50;19.15;;;;;;;5.47;85.46;98105.22;5067738;28;20038;-77
2023/02/17 04:56:50;;;;;;;25.92;10.63;;;;;;;5.35;84.88;98094.19;5086016;28;20050;-78
2023/02/17 04:59:15;;;;;;;36.45;15.73;;;;;;;5.24;87.72;98101.59;5074899;28;20556;-78
2023/02/17 05:01:41;;;;;;;21.13;9.80;;;;;;;5.34;85.75;98111.88;5084458;28;20111;-77
2023/02/17 05:04:06;;;;;;;48.65;19.77;;;;;;;5.50;85.18;98112.25;5070589;28;20020;-77
2023/02/17 05:06:32;;;;;;;36.90;15.82;;;;;;;5.46;85.60;98110.59;5070323;28;20032;-77
2023/02/17 05:08:57;;;;;;;59.42;23.15;;;;;;;5.34;86.80;98111.00;5086522;28;20016;-77
2023/02/17 05:11:23;;;;;;;46.60;17.55;;;;;;;5.34;85.75;98119.84;5065513;28;20515;-76
2023/02/17 05:13:48;;;;;;;29.05;12.90;;;;;;;5.36;86.20;98118.00;5070234;28;20051;-76
2023/02/17 05:16:14;;;;;;;38.17;17.63;;;;;;;5.39;86.20;98127.63;5060613;28;20039;-77
2023/02/17 05:18:39;;;;;;;92.03;39.13;;;;;;;5.27;87.53;98128.00;5085731;28;20030;-79
2023/02/17 05:21:05;;;;;;;44.85;19.45;;;;;;;5.28;87.17;98125.34;5064691;28;20043;-76
2023/02/17 05:23:30;;;;;;;79.88;31.75;;;;;;;5.29;88.39;98139.47;5065280;28;20073;-81
2023/02/17 05:25:56;;;;;;;27.40;11.07;;;;;;;5.43;85.11;98126.63;5072711;28;20395;-79
2023/02/17 05:28:21;;;;;;;33.50;12.75;;;;;;;5.53;84.86;98136.03;5061516;28;20024;-79
2023/02/17 05:30:48;;;;;;;41.58;17.65;;;;;;;5.45;85.83;98138.03;5071374;28;20490;-80
2023/02/17 05:33:14;;;;;;;47.55;20.23;;;;;;;5.41;87.71;98147.03;5090617;28;20036;-79
2023/02/17 05:35:40;;;;;;;25.50;10.70;;;;;;;5.43;85.18;98145.19;5067811;28;20063;-80
2023/02/17 05:38:05;;;;;;;33.58;15.57;;;;;;;5.45;85.74;98144.22;5076115;28;20110;-80
2023/02/17 05:40:31;;;;;;;34.95;14.73;;;;;;;5.49;86.06;98150.28;5068397;28;20551;-81
2023/02/17 05:42:56;;;;;;;43.75;19.35;;;;;;;5.47;86.70;98149.50;5087485;28;20016;-80
2023/02/17 05:45:22;;;;;;;70.63;28.20;;;;;;;5.44;86.94;98145.13;5074185;28;20027;-80
2023/02/17 05:47:47;;;;;;;101.53;37.08;;;;;;;5.45;87.64;98170.75;5085716;28;20407;-80
2023/02/17 05:50:13;;;;;;;38.17;16.20;;;;;;;5.67;84.50;98170.06;5083024;28;20032;-80
2023/02/17 05:52:38;;;;;;;42.05;17.80;;;;;;;5.87;83.58;98168.53;5057082;28;20022;-78
2023/02/17 05:55:04;;;;;;;55.20;20.88;;;;;;;5.90;84.08;98173.75;5057980;28;20030;-76
2023/02/17 05:57:30;;;;;;;54.42;21.77;;;;;;;5.89;85.09;98172.00;5083580;28;20481;-77
2023/02/17 05:59:56;;;;;;;64.63;24.60;;;;;;;5.91;86.19;98180.75;5078403;28;20049;-77
2023/02/17 06:02:21;;;;;;;67.65;25.38;;;;;;;5.90;85.83;98181.72;5079363;28;20051;-76
2023/02/17 06:04:47;;;;;;;43.92;19.63;;;;;;;5.94;84.49;98170.03;5079311;28;20027;-76
2023/02/17 06:07:12;;;;;;;26.83;13.23;;;;;;;6.22;81.49;98174.41;5074213;28;20043;-76
2023/02/17 06:09:38;;;;;;;60.90;23.50;;;;;;;6.31;83.83;98185.59;5058990;28;20035;-75
2023/02/17 06:12:03;;;;;;;68.20;27.63;;;;;;;6.44;84.53;98191.34;5078075;28;20023;-75
2023/02/17 06:14:57;;;;;;;62.95;23.58;;;;;;;6.86;84.93;98204.91;5073325;28;20098;-81
2023/02/17 06:17:23;;;;;;;76.57;31.25;;;;;;;7.58;79.81;98185.25;5065688;28;20040;-78
2023/02/17 06:19:48;;;;;;;60.45;27.38;;;;;;;8.80;72.22;98210.31;5054387;28;20201;-76
2023/02/17 06:22:14;;;;;;;66.95;29.85;;;;;;;10.05;63.87;98199.03;5054728;28;20202;-76
2023/02/17 06:24:39;;;;;;;87.97;37.05;;;;;;;10.76;59.15;98186.50;5054553;28;20028;-76
2023/02/17 06:27:05;;;;;;;79.88;36.33;;;;;;;11.56;57.00;98194.63;5054316;28;20055;-76
2023/02/17 06:29:30;;;;;;;73.88;29.38;;;;;;;12.14;54.11;98186.88;5054410;28;20052;-76
2023/02/17 06:31:56;;;;;;;66.57;29.27;;;;;;;12.52;51.96;98167.56;5055914;28;20125;-76
2023/02/17 06:34:21;;;;;;;91.20;37.58;;;;;;;13.15;50.99;98167.31;5057506;28;20149;-76
2023/02/17 06:36:47;;;;;;;82.20;37.35;;;;;;;14.48;48.80;98190.88;5041572;28;20036;-77
2023/02/17 06:39:13;;;;;;;65.43;32.05;;;;;;;15.91;45.16;98180.75;5037447;28;20040;-78
2023/02/17 06:41:38;;;;;;;76.35;34.85;;;;;;;17.31;41.70;98167.25;5060785;28;20024;-76
2023/02/17 06:44:22;;;;;;;84.05;34.33;;;;;;;18.04;40.69;98166.75;5056918;28;20056;-77
2023/02/17 06:46:48;;;;;;;63.70;28.13;;;;;;;18.54;38.70;98143.59;5073686;28;20024;-77
2023/02/17 06:49:14;;;;;;;71.13;29.77;;;;;;;18.44;37.68;98134.47;5075163;28;20047;-76
2023/02/17 06:51:39;;;;;;;57.90;26.92;;;;;;;18.70;37.76;98124.19;5078259;28;20491;-76
2023/02/17 06:54:05;;;;;;;74.38;34.55;;;;;;;19.36;37.21;98144.56;5078022;28;20045;-76
2023/02/17 06:56:35;;;;;;;73.00;31.35;;;;;;;19.34;35.84;98100.44;5076866;28;20453;-78
2023/02/17 06:59:01;;;;;;;77.05;34.20;;;;;;;19.26;36.48;98108.38;5076750;28;20388;-77
2023/02/17 07:01:26;;;;;;;74.55;34.78;;;;;;;19.21;37.15;98116.09;5077927;28;20084;-78
2023/02/17 07:03:52;;;;;;;62.67;32.72;;;;;;;20.19;34.54;98114.44;5094870;28;20032;-76
2023/02/17 07:06:18;;;;;;;78.15;37.35;;;;;;;20.79;34.35;98114.22;5065339;28;20028;-76
2023/02/17 07:08:44;;;;;;;86.45;41.92;;;;;;;21.21;33.58;98109.31;5074516;28;20608;-79
2023/02/17 07:11:12;;;;;;;80.82;37.78;;;;;;;22.05;32.86;98119.16;5094043;28;20485;-76
2023/02/17 07:13:38;;;;;;;75.47;37.15;;;;;;;22.75;31.09;98111.19;5087999;28;20020;-77
2023/02/17 07:16:07;;;;;;;74.53;35.55;;;;;;;22.45;31.24;98090.63;5060188;28;20476;-78
2023/02/17 07:18:36;;;;;;;66.32;32.97;;;;;;;21.74;31.98;98081.44;5077920;28;20030;-76
2023/02/17 07:21:03;;;;;;;65.78;30.92;;;;;;;22.08;31.53;98077.97;5090094;28;20044;-79
2023/02/17 07:23:29;;;;;;;61.55;31.10;;;;;;;23.37;30.69;98111.00;5074567;28;20093;-79
2023/02/17 07:25:54;;;;;;;56.38;26.63;;;;;;;23.50;29.07;98088.75;5057352;28;20028;-76
2023/02/17 07:28:20;;;;;;;23.83;12.00;;;;;;;23.80;27.71;98074.56;5062534;28;20029;-75
2023/02/17 07:30:45;;;;;;;68.82;26.77;;;;;;;24.07;30.68;98093.44;5071043;28;20054;-78
2023/02/17 07:33:11;;;;;;;53.00;23.58;;;;;;;24.42;29.03;98094.25;5064380;28;20032;-76
2023/02/17 07:35:44;;;;;;;31.13;15.88;;;;;;;24.25;28.50;98091.47;5073933;28;20051;-76
2023/02/17 07:38:10;;;;;;;26.92;13.23;;;;;;;24.31;28.55;98080.88;5091092;28;20055;-76
2023/02/17 07:40:38;;;;;;;37.92;17.05;;;;;;;24.05;28.91;98087.28;5066883;28;20024;-75
2023/02/17 07:43:03;;;;;;;23.40;11.32;;;;;;;23.37;29.32;98058.25;5055474;28;20046;-76
2023/02/17 07:45:29;;;;;;;27.13;13.48;;;;;;;23.60;30.66;98090.34;5077249;28;20408;-75
2023/02/17 07:47:54;;;;;;;29.45;13.63;;;;;;;24.02;32.17;98117.69;5088082;28;20032;-76
2023/02/17 07:50:21;;;;;;;21.77;11.23;;;;;;;24.13;29.80;98083.75;5073061;28;20017;-76
2023/02/17 07:52:46;;;;;;;23.50;13.25;;;;;;;23.45;30.23;98069.25;5071563;28;20168;-76
2023/02/17 07:55:12;;;;;;;37.20;17.52;;;;;;;23.13;30.74;98070.72;5064236;28;20507;-76
2023/02/17 07:57:37;;;;;;;25.30;12.75;;;;;;;23.12;30.78;98073.63;5090128;28;20029;-76
2023/02/17 08:00:05;;;;;;;27.40;12.82;;;;;;;23.22;30.38;98077.94;5071230;28;20070;-77
2023/02/17 08:02:30;;;;;;;20.35;10.27;;;;;;;23.09;29.51;98061.16;5053157;28;20028;-75
2023/02/17 08:04:56;;;;;;;22.98;12.32;;;;;;;23.29;30.25;98069.97;5053187;28;20017;-75
2023/02/17 08:07:21;;;;;;;21.48;10.30;;;;;;;23.54;28.64;98063.66;5073930;28;20036;-77
2023/02/17 08:15:34;;;;;;;23.40;11.45;;;;;;;23.69;28.91;98063.91;5052735;28;20051;-75
2023/02/17 08:18:00;;;;;;;20.58;11.05;;;;;;;23.88;29.20;98070.97;5032074;28;20032;-75
2023/02/17 08:20:26;;;;;;;19.42;10.20;;;;;;;25.09;28.95;98107.66;5044209;28;20036;-76
2023/02/17 08:22:52;;;;;;;22.65;10.18;;;;;;;26.20;26.71;98103.13;5072702;28;20124;-75
2023/02/17 08:25:18;;;;;;;27.05;13.70;;;;;;;26.74;25.35;98091.09;5080953;28;20472;-75
2023/02/17 08:27:43;;;;;;;26.80;10.85;;;;;;;27.65;24.21;98112.13;5066067;28;20036;-75
2023/02/17 08:30:10;;;;;;;25.73;9.98;;;;;;;27.71;24.46;98105.88;5062513;28;20403;-75
2023/02/17 08:32:35;;;;;;;20.60;9.70;;;;;;;27.50;24.36;98076.41;5089314;28;20475;-75
2023/02/17 08:35:01;;;;;;;27.83;10.20;;;;;;;27.18;24.40;98076.69;5072475;28;20024;-75
2023/02/17 08:37:26;;;;;;;17.33;9.07;;;;;;;25.72;24.08;98005.44;5072355;28;20065;-75
2023/02/17 08:39:52;;;;;;;17.85;10.18;;;;;;;25.05;24.57;98007.72;5066342;28;20090;-78
2023/02/17 08:42:18;;;;;;;21.33;9.38;;;;;;;25.72;24.94;98047.41;5052396;28;20056;-75
2023/02/17 08:44:44;;;;;;;19.70;9.82;;;;;;;26.99;23.98;98072.56;5069104;28;20036;-75
2023/02/17 08:47:09;;;;;;;18.20;10.52;;;;;;;27.58;23.30;98080.94;5052181;28;20035;-75
2023/02/17 08:49:35;;;;;;;21.77;12.25;;;;;;;28.02;22.54;98070.78;5070802;28;20398;-76
2023/02/17 08:52:01;;;;;;;31.90;12.30;;;;;;;27.62;23.44;98054.78;5089402;28;20024;-76
2023/02/17 08:54:27;;;;;;;20.50;11.23;;;;;;;27.18;22.64;98027.22;5077887;28;20403;-76
2023/02/17 08:56:52;;;;;;;26.30;11.32;;;;;;;27.63;22.35;98053.72;5072355;28;20039;-76
2023/02/17 08:59:18;;;;;;;18.70;10.00;;;;;;;27.89;21.66;98043.09;5089242;28;20113;-77
2023/02/17 09:01:44;;;;;;;26.95;12.88;;;;;;;28.17;21.92;98055.13;5069245;28;20052;-76
2023/02/17 09:04:11;;;;;;;21.48;8.00;;;;;;;28.56;21.31;98051.09;5070045;28;20099;-76
2023/02/17 09:06:48;;;;;;;15.68;7.80;;;;;;;28.73;19.95;98036.91;5069728;28;20066;-78
2023/02/17 09:09:16;;;;;;;11.85;6.30;;;;;;;27.99;20.24;98013.41;5076337;28;20024;-76
2023/02/17 09:11:42;;;;;;;10.63;5.88;;;;;;;27.77;20.91;98012.47;5090442;28;20024;-76
2023/02/17 09:14:08;;;;;;;14.98;6.22;;;;;;;27.38;20.84;97981.66;5076053;28;20483;-76
2023/02/17 09:16:33;;;;;;;9.88;5.20;;;;;;;27.10;20.73;97975.94;5066593;28;20450;-76
2023/02/17 09:18:59;;;;;;;9.63;5.47;;;;;;;27.83;20.26;97995.22;5071710;28;20051;-77
2023/02/17 09:21:24;;;;;;;15.18;6.65;;;;;;;27.90;20.16;97992.53;5079621;28;20027;-76
2023/02/17 09:23:52;;;;;;;12.02;6.88;;;;;;;27.70;20.04;97986.78;5090717;28;20454;-76
2023/02/17 09:26:18;;;;;;;10.50;6.75;;;;;;;27.15;20.86;97965.28;5089648;28;20032;-77
2023/02/17 09:28:44;;;;;;;11.70;6.43;;;;;;;27.64;20.72;97983.94;5059337;28;20508;-76
2023/02/17 09:31:19;;;;;;;15.45;6.45;;;;;;;27.86;20.15;97983.81;5069973;28;20036;-76
2023/02/17 09:33:46;;;;;;;14.63;5.28;;;;;;;27.96;19.74;97973.34;5078974;28;20027;-76
2023/02/17 09:36:14;;;;;;;16.42;11.20;;;;;;;27.67;20.30;97964.31;5062179;28;20024;-76
2023/02/17 09:38:40;;;;;;;20.58;7.68;;;;;;;27.69;20.35;97971.31;5059085;28;20028;-76
2023/02/17 09:41:33;;;;;;;16.35;10.18;;;;;;;28.27;19.58;97984.09;5075574;28;20024;-75
2023/02/17 09:43:59;;;;;;;12.40;5.88;;;;;;;28.42;19.74;97979.41;5075441;28;20518;-77
2023/02/17 09:46:32;;;;;;;15.70;5.70;;;;;;;28.49;19.71;97980.28;5094513;28;20094;-76
2023/02/17 09:49:20;;;;;;;21.55;6.40;;;;;;;28.48;19.42;97967.59;5089687;28;20491;-76
2023/02/17 09:52:05;;;;;;;12.43;5.03;;;;;;;28.61;19.17;97955.00;5075656;28;20063;-76
2023/02/17 09:54:37;;;;;;;24.83;5.55;;;;;;;29.06;19.11;97976.59;5080421;28;20058;-76
2023/02/17 09:57:07;;;;;;;13.20;4.97;;;;;;;29.27;18.62;97970.19;5086092;28;20102;-77
2023/02/17 09:59:38;;;;;;;8.18;4.75;;;;;;;28.85;19.20;97960.09;5081162;28;20053;-77
2023/02/17 10:02:39;;;;;;;8.98;4.78;;;;;;;28.50;19.42;97957.22;5058681;28;20047;-77
2023/02/17 10:05:07;;;;;;;13.38;6.38;;;;;;;29.54;18.91;97972.88;5070353;28;20116;-77
2023/02/17 10:07:50;;;;;;;15.15;6.63;;;;;;;28.45;18.85;97915.69;5060700;28;20028;-77
2023/02/17 10:10:30;;;;;;;16.17;7.22;;;;;;;28.47;19.02;97916.34;5075643;28;20066;-76
2023/02/17 10:12:58;;;;;;;16.80;6.93;;;;;;;28.76;19.27;97931.00;5071268;28;20418;-77
2023/02/17 10:15:29;;;;;;;7.50;4.95;;;;;;;28.47;18.99;97910.81;5066370;28;20038;-76
2023/02/17 10:18:09;;;;;;;10.43;5.00;;;;;;;28.53;18.91;97912.78;5065685;28;20076;-76
2023/02/17 10:20:42;;;;;;;10.57;6.15;;;;;;;27.71;19.25;97874.91;5094955;28;20043;-76
2023/02/17 10:23:11;;;;;;;8.60;5.00;;;;;;;28.56;19.29;97916.19;5068578;28;20047;-77
2023/02/17 10:25:43;;;;;;;12.55;5.22;;;;;;;29.14;18.75;97929.56;5074722;28;20031;-77
2023/02/17 10:28:14;;;;;;;11.02;5.38;;;;;;;28.39;19.24;97902.69;5074727;28;20031;-77
2023/02/17 10:30:40;;;;;;;12.00;5.30;;;;;;;29.41;19.39;97945.22;5058324;28;20118;-77
2023/02/17 10:33:22;;;;;;;11.00;4.68;;;;;;;29.63;18.57;97931.34;5074858;28;20430;-77
2023/02/17 10:36:17;;;;;;;14.68;4.60;;;;;;;29.92;18.01;97920.88;5061689;28;20070;-77
2023/02/17 10:38:49;;;;;;;11.10;5.38;;;;;;;29.78;17.96;97905.28;5113210;28;20098;-77
2023/02/17 10:41:19;;;;;;;10.65;6.93;;;;;;;30.17;18.24;97925.81;5079490;28;20061;-77
2023/02/17 10:43:45;;;;;;;6.35;4.25;;;;;;;30.01;17.84;97904.97;5057886;28;20063;-77
2023/02/17 10:46:12;;;;;;;11.70;5.05;;;;;;;30.39;18.16;97924.63;5072318;28;20020;-77
2023/02/17 10:48:47;;;;;;;5.00;3.10;;;;;;;30.22;17.21;97907.56;5077937;28;20019;-77
2023/02/17 10:51:15;;;;;;;7.10;3.80;;;;;;;30.55;17.07;97914.00;5077993;28;20019;-76
2023/02/17 10:53:44;;;;;;;4.88;3.10;;;;;;;30.68;17.13;97912.28;5064855;28;20028;-76
2023/02/17 10:56:19;;;;;;;7.25;4.05;;;;;;;28.74;18.39;97831.19;5063929;28;20501;-76
2023/02/17 10:58:45;;;;;;;5.57;2.90;;;;;;;29.36;17.67;97854.03;5094612;28;20030;-77
2023/02/17 11:01:11;;;;;;;6.60;3.53;;;;;;;29.30;17.75;97854.84;5112760;28;20039;-76
2023/02/17 11:03:39;;;;;;;5.75;2.88;;;;;;;29.52;17.24;97850.06;5069977;28;20098;-77
2023/02/17 11:06:24;;;;;;;6.13;2.92;;;;;;;29.43;17.41;97852.16;5074402;28;20047;-76
2023/02/17 11:08:55;;;;;;;7.53;3.38;;;;;;;29.86;17.26;97862.91;5058140;28;20119;-76
2023/02/17 11:11:29;;;;;;;4.50;3.10;;;;;;;29.55;18.02;97841.38;5057612;28;20107;-77
2023/02/17 11:14:06;;;;;;;6.65;4.97;;;;;;;29.27;18.08;97840.63;5063675;28;20020;-78
2023/02/17 11:16:32;;;;;;;4.20;2.88;;;;;;;29.42;17.84;97833.91;5083139;28;20032;-79
2023/02/17 11:18:58;;;;;;;6.40;3.20;;;;;;;26.95;18.90;97738.06;5074154;28;20038;-77
2023/02/17 11:21:23;;;;;;;7.85;2.88;;;;;;;27.42;18.63;97777.75;5057136;28;20131;-79
2023/02/17 11:23:59;;;;;;;4.32;2.80;;;;;;;28.33;18.01;97801.66;5074116;28;20024;-78
2023/02/17 11:26:28;;;;;;;19.73;3.95;;;;;;;25.22;20.16;97697.19;5057363;28;20038;-78
2023/02/17 11:28:53;;;;;;;19.40;4.57;;;;;;;26.55;19.79;97772.38;5056698;28;20024;-79
2023/02/17 11:31:27;;;;;;;7.60;3.65;;;;;;;27.64;19.09;97788.75;5057165;28;20119;-80
2023/02/17 11:33:53;;;;;;;4.50;2.78;;;;;;;27.48;18.71;97794.47;5076102;28;20115;-77
2023/02/17 11:36:28;;;;;;;18.63;8.65;;;;;;;29.12;18.27;97849.00;5085829;28;20035;-80